sensor_id;sensor_type;location;lat;lon;timestamp;P1;durP1;ratioP1;P2;durP2;ratioP2
59300;SDS011;45073;52.740;6.784;2023-03-23T00:01:03;9.40;;;4.85;;
59300;SDS011;45073;52.740;6.784;2023-03-23T00:03:30;11.75;;;4.88;;
59300;SDS011;45073;52.740;6.784;2023-03-23T00:05:59;9.98;;;4.93;;
59300;SDS011;45073;52.740;6.784;2023-03-23T00:08:30;10.73;;;5.13;;
59300;SDS011;45073;52.740;6.784;2023-03-23T00:11:02;9.55;;;4.68;;
59300;SDS011;45073;52.740;6.784;2023-03-23T00:13:29;12.90;;;5.75;;
59300;SDS011;45073;52.740;6.784;2023-03-23T00:15:56;13.05;;;5.25;;
59300;SDS011;45073;52.740;6.784;2023-03-23T00:18:22;10.85;;;5.35;;
59300;SDS011;45073;52.740;6.784;2023-03-23T00:20:53;10.82;;;6.95;;
59300;SDS011;45073;52.740;6.784;2023-03-23T00:23:22;12.75;;;5.50;;
59300;SDS011;45073;52.740;6.784;2023-03-23T00:25:55;11.02;;;4.60;;
59300;SDS011;45073;52.740;6.784;2023-03-23T00:28:24;10.00;;;4.72;;
59300;SDS011;45073;52.740;6.784;2023-03-23T00:30:58;9.13;;;4.53;;
59300;SDS011;45073;52.740;6.784;2023-03-23T00:33:26;9.63;;;3.92;;
59300;SDS011;45073;52.740;6.784;2023-03-23T00:35:54;12.00;;;4.93;;
59300;SDS011;45073;52.740;6.784;2023-03-23T00:38:21;9.13;;;4.60;;
59300;SDS011;45073;52.740;6.784;2023-03-23T00:40:48;10.13;;;4.25;;
59300;SDS011;45073;52.740;6.784;2023-03-23T00:43:15;10.10;;;4.60;;
59300;SDS011;45073;52.740;6.784;2023-03-23T00:45:42;8.70;;;4.45;;
59300;SDS011;45073;52.740;6.784;2023-03-23T00:48:18;9.82;;;4.18;;
59300;SDS011;45073;52.740;6.784;2023-03-23T00:50:44;9.07;;;4.20;;
59300;SDS011;45073;52.740;6.784;2023-03-23T00:53:10;11.10;;;4.50;;
59300;SDS011;45073;52.740;6.784;2023-03-23T00:55:36;8.50;;;3.53;;
59300;SDS011;45073;52.740;6.784;2023-03-23T00:58:02;8.00;;;3.33;;
59300;SDS011;45073;52.740;6.784;2023-03-23T01:00:27;10.18;;;3.78;;
59300;SDS011;45073;52.740;6.784;2023-03-23T01:02:53;9.68;;;3.25;;
59300;SDS011;45073;52.740;6.784;2023-03-23T01:05:20;8.60;;;3.10;;
59300;SDS011;45073;52.740;6.784;2023-03-23T01:07:46;9.27;;;3.25;;
59300;SDS011;45073;52.740;6.784;2023-03-23T01:10:13;7.95;;;2.75;;
59300;SDS011;45073;52.740;6.784;2023-03-23T01:12:46;6.75;;;2.63;;
59300;SDS011;45073;52.740;6.784;2023-03-23T01:15:15;6.97;;;2.80;;
59300;SDS011;45073;52.740;6.784;2023-03-23T01:17:42;8.80;;;3.33;;
59300;SDS011;45073;52.740;6.784;2023-03-23T01:20:09;8.63;;;3.63;;
59300;SDS011;45073;52.740;6.784;2023-03-23T01:22:36;7.68;;;3.47;;
59300;SDS011;45073;52.740;6.784;2023-03-23T01:25:03;7.15;;;3.20;;
59300;SDS011;45073;52.740;6.784;2023-03-23T01:27:29;12.75;;;4.10;;
59300;SDS011;45073;52.740;6.784;2023-03-23T01:29:55;8.68;;;3.80;;
59300;SDS011;45073;52.740;6.784;2023-03-23T01:32:20;13.23;;;3.65;;
59300;SDS011;45073;52.740;6.784;2023-03-23T01:34:46;8.75;;;3.58;;
59300;SDS011;45073;52.740;6.784;2023-03-23T01:37:12;7.78;;;3.33;;
59300;SDS011;45073;52.740;6.784;2023-03-23T01:39:37;8.00;;;3.70;;
59300;SDS011;45073;52.740;6.784;2023-03-23T01:42:03;9.60;;;3.67;;
59300;SDS011;45073;52.740;6.784;2023-03-23T01:46:55;10.35;;;3.45;;
59300;SDS011;45073;52.740;6.784;2023-03-23T01:49:24;9.23;;;3.20;;
59300;SDS011;45073;52.740;6.784;2023-03-23T01:51:59;9.85;;;3.20;;
59300;SDS011;45073;52.740;6.784;2023-03-23T01:54:27;9.27;;;3.05;;
59300;SDS011;45073;52.740;6.784;2023-03-23T01:57:08;10.55;;;3.38;;
59300;SDS011;45073;52.740;6.784;2023-03-23T01:59:38;9.90;;;3.28;;
59300;SDS011;45073;52.740;6.784;2023-03-23T02:02:08;9.77;;;4.88;;
59300;SDS011;45073;52.740;6.784;2023-03-23T02:04:35;9.95;;;3.53;;
59300;SDS011;45073;52.740;6.784;2023-03-23T02:07:02;8.63;;;3.22;;
59300;SDS011;45073;52.740;6.784;2023-03-23T02:09:29;8.32;;;3.35;;
59300;SDS011;45073;52.740;6.784;2023-03-23T02:11:55;8.48;;;2.90;;
59300;SDS011;45073;52.740;6.784;2023-03-23T02:14:22;10.02;;;3.65;;
59300;SDS011;45073;52.740;6.784;2023-03-23T02:16:53;8.23;;;3.22;;
59300;SDS011;45073;52.740;6.784;2023-03-23T02:31:12;8.98;;;3.25;;
59300;SDS011;45073;52.740;6.784;2023-03-23T02:36:23;8.30;;;3.40;;
59300;SDS011;45073;52.740;6.784;2023-03-23T02:41:39;10.13;;;3.42;;
59300;SDS011;45073;52.740;6.784;2023-03-23T02:44:15;9.60;;;3.38;;
59300;SDS011;45073;52.740;6.784;2023-03-23T02:46:42;8.05;;;3.25;;
59300;SDS011;45073;52.740;6.784;2023-03-23T02:49:09;8.30;;;3.17;;
59300;SDS011;45073;52.740;6.784;2023-03-23T02:51:39;7.43;;;3.13;;
59300;SDS011;45073;52.740;6.784;2023-03-23T02:54:07;7.72;;;3.30;;
59300;SDS011;45073;52.740;6.784;2023-03-23T02:56:33;8.13;;;3.20;;
59300;SDS011;45073;52.740;6.784;2023-03-23T02:59:00;8.48;;;3.35;;
59300;SDS011;45073;52.740;6.784;2023-03-23T03:03:57;7.15;;;3.15;;
59300;SDS011;45073;52.740;6.784;2023-03-23T03:09:13;11.27;;;4.05;;
59300;SDS011;45073;52.740;6.784;2023-03-23T03:11:46;7.72;;;3.33;;
59300;SDS011;45073;52.740;6.784;2023-03-23T03:14:21;8.25;;;2.97;;
59300;SDS011;45073;52.740;6.784;2023-03-23T03:19:26;7.25;;;2.90;;
59300;SDS011;45073;52.740;6.784;2023-03-23T03:22:01;9.05;;;2.92;;
59300;SDS011;45073;52.740;6.784;2023-03-23T03:24:28;7.18;;;3.08;;
59300;SDS011;45073;52.740;6.784;2023-03-23T03:26:56;8.05;;;3.38;;
59300;SDS011;45073;52.740;6.784;2023-03-23T03:29:31;8.35;;;3.25;;
59300;SDS011;45073;52.740;6.784;2023-03-23T03:31:59;6.53;;;2.67;;
59300;SDS011;45073;52.740;6.784;2023-03-23T03:34:29;6.63;;;2.80;;
59300;SDS011;45073;52.740;6.784;2023-03-23T03:36:57;8.25;;;3.08;;
59300;SDS011;45073;52.740;6.784;2023-03-23T03:39:24;7.35;;;3.00;;
59300;SDS011;45073;52.740;6.784;2023-03-23T03:41:51;7.80;;;3.10;;
59300;SDS011;45073;52.740;6.784;2023-03-23T03:44:17;7.65;;;3.03;;
59300;SDS011;45073;52.740;6.784;2023-03-23T03:46:43;7.40;;;3.30;;
59300;SDS011;45073;52.740;6.784;2023-03-23T03:49:09;8.68;;;3.25;;
59300;SDS011;45073;52.740;6.784;2023-03-23T03:51:37;8.98;;;3.38;;
59300;SDS011;45073;52.740;6.784;2023-03-23T03:54:03;7.32;;;2.95;;
59300;SDS011;45073;52.740;6.784;2023-03-23T03:56:29;8.02;;;3.10;;
59300;SDS011;45073;52.740;6.784;2023-03-23T03:58:56;7.30;;;3.05;;
59300;SDS011;45073;52.740;6.784;2023-03-23T04:01:22;8.57;;;3.25;;
59300;SDS011;45073;52.740;6.784;2023-03-23T04:03:49;8.20;;;3.05;;
59300;SDS011;45073;52.740;6.784;2023-03-23T04:06:15;9.07;;;3.20;;
59300;SDS011;45073;52.740;6.784;2023-03-23T04:08:41;7.72;;;3.05;;
59300;SDS011;45073;52.740;6.784;2023-03-23T04:11:08;6.75;;;3.25;;
59300;SDS011;45073;52.740;6.784;2023-03-23T04:13:35;9.18;;;3.90;;
59300;SDS011;45073;52.740;6.784;2023-03-23T04:16:01;7.80;;;3.15;;
59300;SDS011;45073;52.740;6.784;2023-03-23T04:18:27;10.43;;;3.28;;
59300;SDS011;45073;52.740;6.784;2023-03-23T04:20:54;9.65;;;3.38;;
59300;SDS011;45073;52.740;6.784;2023-03-23T04:23:24;8.38;;;3.28;;
59300;SDS011;45073;52.740;6.784;2023-03-23T04:25:50;8.13;;;3.58;;
59300;SDS011;45073;52.740;6.784;2023-03-23T04:28:18;8.65;;;3.40;;
59300;SDS011;45073;52.740;6.784;2023-03-23T04:30:44;8.80;;;3.40;;
59300;SDS011;45073;52.740;6.784;2023-03-23T04:33:14;8.05;;;3.17;;
59300;SDS011;45073;52.740;6.784;2023-03-23T04:35:41;10.77;;;4.00;;
59300;SDS011;45073;52.740;6.784;2023-03-23T04:38:11;9.18;;;3.85;;
59300;SDS011;45073;52.740;6.784;2023-03-23T04:40:39;11.57;;;3.90;;
59300;SDS011;45073;52.740;6.784;2023-03-23T04:43:05;9.10;;;3.78;;
59300;SDS011;45073;52.740;6.784;2023-03-23T04:45:32;8.40;;;3.08;;
59300;SDS011;45073;52.740;6.784;2023-03-23T04:47:59;10.13;;;3.72;;
59300;SDS011;45073;52.740;6.784;2023-03-23T04:50:27;10.95;;;3.35;;
59300;SDS011;45073;52.740;6.784;2023-03-23T04:52:55;8.55;;;3.05;;
59300;SDS011;45073;52.740;6.784;2023-03-23T04:55:23;8.70;;;3.53;;
59300;SDS011;45073;52.740;6.784;2023-03-23T04:57:50;9.77;;;2.97;;
59300;SDS011;45073;52.740;6.784;2023-03-23T05:00:16;9.68;;;3.53;;
59300;SDS011;45073;52.740;6.784;2023-03-23T05:02:43;9.27;;;3.03;;
59300;SDS011;45073;52.740;6.784;2023-03-23T05:05:11;9.20;;;2.78;;
59300;SDS011;45073;52.740;6.784;2023-03-23T05:07:39;9.40;;;3.17;;
59300;SDS011;45073;52.740;6.784;2023-03-23T05:10:06;8.82;;;3.13;;
59300;SDS011;45073;52.740;6.784;2023-03-23T05:12:36;7.35;;;2.72;;
59300;SDS011;45073;52.740;6.784;2023-03-23T05:15:02;12.00;;;4.70;;
59300;SDS011;45073;52.740;6.784;2023-03-23T05:17:29;6.82;;;2.75;;
59300;SDS011;45073;52.740;6.784;2023-03-23T05:19:55;8.13;;;3.15;;
59300;SDS011;45073;52.740;6.784;2023-03-23T05:22:21;8.52;;;2.65;;
59300;SDS011;45073;52.740;6.784;2023-03-23T05:24:48;8.07;;;2.90;;
59300;SDS011;45073;52.740;6.784;2023-03-23T05:27:16;8.43;;;3.45;;
59300;SDS011;45073;52.740;6.784;2023-03-23T05:29:44;9.15;;;3.58;;
59300;SDS011;45073;52.740;6.784;2023-03-23T05:32:13;11.18;;;3.35;;
59300;SDS011;45073;52.740;6.784;2023-03-23T05:34:39;10.27;;;3.05;;
59300;SDS011;45073;52.740;6.784;2023-03-23T05:37:07;7.28;;;2.72;;
59300;SDS011;45073;52.740;6.784;2023-03-23T05:39:34;8.13;;;2.42;;
59300;SDS011;45073;52.740;6.784;2023-03-23T05:42:00;9.27;;;2.15;;
59300;SDS011;45073;52.740;6.784;2023-03-23T05:44:26;8.05;;;2.28;;
59300;SDS011;45073;52.740;6.784;2023-03-23T05:46:52;7.32;;;1.98;;
59300;SDS011;45073;52.740;6.784;2023-03-23T05:49:18;10.13;;;2.13;;
59300;SDS011;45073;52.740;6.784;2023-03-23T05:51:44;7.63;;;2.10;;
59300;SDS011;45073;52.740;6.784;2023-03-23T05:54:11;6.68;;;1.85;;
59300;SDS011;45073;52.740;6.784;2023-03-23T05:56:38;6.57;;;2.13;;
59300;SDS011;45073;52.740;6.784;2023-03-23T05:59:03;5.85;;;2.25;;
59300;SDS011;45073;52.740;6.784;2023-03-23T06:01:29;8.63;;;2.28;;
59300;SDS011;45073;52.740;6.784;2023-03-23T06:03:56;5.60;;;1.88;;
59300;SDS011;45073;52.740;6.784;2023-03-23T06:06:27;5.10;;;1.60;;
59300;SDS011;45073;52.740;6.784;2023-03-23T06:08:54;8.55;;;2.30;;
59300;SDS011;45073;52.740;6.784;2023-03-23T06:11:20;6.85;;;1.98;;
59300;SDS011;45073;52.740;6.784;2023-03-23T06:13:46;5.55;;;1.75;;
59300;SDS011;45073;52.740;6.784;2023-03-23T06:16:13;6.57;;;2.10;;
59300;SDS011;45073;52.740;6.784;2023-03-23T06:18:39;5.50;;;2.17;;
59300;SDS011;45073;52.740;6.784;2023-03-23T06:21:06;5.80;;;1.90;;
59300;SDS011;45073;52.740;6.784;2023-03-23T06:23:33;6.47;;;1.88;;
59300;SDS011;45073;52.740;6.784;2023-03-23T06:26:00;6.70;;;1.75;;
59300;SDS011;45073;52.740;6.784;2023-03-23T06:28:28;4.47;;;1.48;;
59300;SDS011;45073;52.740;6.784;2023-03-23T06:30:54;8.13;;;1.70;;
59300;SDS011;45073;52.740;6.784;2023-03-23T06:33:20;4.35;;;1.63;;
59300;SDS011;45073;52.740;6.784;2023-03-23T06:35:45;8.82;;;2.28;;
59300;SDS011;45073;52.740;6.784;2023-03-23T06:38:11;9.10;;;1.85;;
59300;SDS011;45073;52.740;6.784;2023-03-23T06:40:37;8.23;;;2.45;;
59300;SDS011;45073;52.740;6.784;2023-03-23T06:43:03;11.38;;;2.50;;
59300;SDS011;45073;52.740;6.784;2023-03-23T06:45:29;7.35;;;1.90;;
59300;SDS011;45073;52.740;6.784;2023-03-23T06:47:56;10.73;;;1.95;;
59300;SDS011;45073;52.740;6.784;2023-03-23T06:50:22;7.20;;;2.00;;
59300;SDS011;45073;52.740;6.784;2023-03-23T06:52:48;8.77;;;2.45;;
59300;SDS011;45073;52.740;6.784;2023-03-23T06:55:16;6.95;;;2.65;;
59300;SDS011;45073;52.740;6.784;2023-03-23T06:57:42;9.93;;;2.20;;
59300;SDS011;45073;52.740;6.784;2023-03-23T07:00:09;9.55;;;2.58;;
59300;SDS011;45073;52.740;6.784;2023-03-23T07:02:38;7.30;;;2.38;;
59300;SDS011;45073;52.740;6.784;2023-03-23T07:05:07;11.00;;;2.50;;
59300;SDS011;45073;52.740;6.784;2023-03-23T07:07:34;9.45;;;2.25;;
59300;SDS011;45073;52.740;6.784;2023-03-23T07:10:02;14.77;;;3.08;;
59300;SDS011;45073;52.740;6.784;2023-03-23T07:12:33;11.20;;;2.67;;
59300;SDS011;45073;52.740;6.784;2023-03-23T07:14:58;9.10;;;2.38;;
59300;SDS011;45073;52.740;6.784;2023-03-23T07:17:24;12.45;;;2.28;;
59300;SDS011;45073;52.740;6.784;2023-03-23T07:19:50;10.00;;;2.65;;
59300;SDS011;45073;52.740;6.784;2023-03-23T07:22:16;12.75;;;2.35;;
59300;SDS011;45073;52.740;6.784;2023-03-23T07:24:42;12.57;;;2.50;;
59300;SDS011;45073;52.740;6.784;2023-03-23T07:27:08;12.93;;;2.42;;
59300;SDS011;45073;52.740;6.784;2023-03-23T07:29:34;8.55;;;2.53;;
59300;SDS011;45073;52.740;6.784;2023-03-23T07:32:03;9.57;;;2.55;;
59300;SDS011;45073;52.740;6.784;2023-03-23T07:34:30;13.38;;;2.63;;
59300;SDS011;45073;52.740;6.784;2023-03-23T07:36:57;9.30;;;2.42;;
59300;SDS011;45073;52.740;6.784;2023-03-23T07:39:23;10.95;;;2.40;;
59300;SDS011;45073;52.740;6.784;2023-03-23T07:41:49;10.13;;;2.08;;
59300;SDS011;45073;52.740;6.784;2023-03-23T07:44:15;8.98;;;2.00;;
59300;SDS011;45073;52.740;6.784;2023-03-23T07:46:41;9.70;;;2.45;;
59300;SDS011;45073;52.740;6.784;2023-03-23T07:49:08;9.13;;;2.17;;
59300;SDS011;45073;52.740;6.784;2023-03-23T07:51:34;9.48;;;1.92;;
59300;SDS011;45073;52.740;6.784;2023-03-23T07:54:00;9.70;;;1.98;;
59300;SDS011;45073;52.740;6.784;2023-03-23T07:56:28;13.95;;;2.53;;
59300;SDS011;45073;52.740;6.784;2023-03-23T07:58:54;11.50;;;2.28;;
59300;SDS011;45073;52.740;6.784;2023-03-23T08:01:20;8.57;;;1.98;;
59300;SDS011;45073;52.740;6.784;2023-03-23T08:03:46;9.73;;;2.53;;
59300;SDS011;45073;52.740;6.784;2023-03-23T08:06:12;9.75;;;2.40;;
59300;SDS011;45073;52.740;6.784;2023-03-23T08:08:38;10.32;;;2.20;;
59300;SDS011;45073;52.740;6.784;2023-03-23T08:11:05;15.27;;;3.38;;
59300;SDS011;45073;52.740;6.784;2023-03-23T08:13:31;13.85;;;2.92;;
59300;SDS011;45073;52.740;6.784;2023-03-23T08:15:58;14.52;;;2.80;;
59300;SDS011;45073;52.740;6.784;2023-03-23T08:18:28;9.45;;;2.25;;
59300;SDS011;45073;52.740;6.784;2023-03-23T08:20:54;10.35;;;2.47;;
59300;SDS011;45073;52.740;6.784;2023-03-23T08:23:20;10.55;;;3.00;;
59300;SDS011;45073;52.740;6.784;2023-03-23T08:25:46;16.33;;;3.67;;
59300;SDS011;45073;52.740;6.784;2023-03-23T08:28:13;12.25;;;2.55;;
59300;SDS011;45073;52.740;6.784;2023-03-23T08:30:41;12.50;;;3.25;;
59300;SDS011;45073;52.740;6.784;2023-03-23T08:33:07;10.73;;;2.80;;
59300;SDS011;45073;52.740;6.784;2023-03-23T08:35:35;10.35;;;2.55;;
59300;SDS011;45073;52.740;6.784;2023-03-23T08:38:01;10.27;;;2.35;;
59300;SDS011;45073;52.740;6.784;2023-03-23T08:40:28;9.40;;;2.53;;
59300;SDS011;45073;52.740;6.784;2023-03-23T08:42:54;12.18;;;2.95;;
59300;SDS011;45073;52.740;6.784;2023-03-23T08:45:22;10.45;;;2.88;;
59300;SDS011;45073;52.740;6.784;2023-03-23T08:47:49;13.25;;;2.60;;
59300;SDS011;45073;52.740;6.784;2023-03-23T08:50:17;14.07;;;2.80;;
59300;SDS011;45073;52.740;6.784;2023-03-23T08:52:44;10.63;;;3.15;;
59300;SDS011;45073;52.740;6.784;2023-03-23T08:55:10;13.45;;;3.22;;
59300;SDS011;45073;52.740;6.784;2023-03-23T08:57:37;13.68;;;3.30;;
59300;SDS011;45073;52.740;6.784;2023-03-23T09:00:04;11.88;;;2.92;;
59300;SDS011;45073;52.740;6.784;2023-03-23T09:02:43;15.30;;;4.80;;
59300;SDS011;45073;52.740;6.784;2023-03-23T09:05:14;15.88;;;3.13;;
59300;SDS011;45073;52.740;6.784;2023-03-23T09:07:44;9.35;;;3.05;;
59300;SDS011;45073;52.740;6.784;2023-03-23T09:10:12;12.13;;;3.75;;
59300;SDS011;45073;52.740;6.784;2023-03-23T09:12:39;13.15;;;3.58;;
59300;SDS011;45073;52.740;6.784;2023-03-23T09:15:07;15.43;;;3.65;;
59300;SDS011;45073;52.740;6.784;2023-03-23T09:17:35;14.85;;;3.55;;
59300;SDS011;45073;52.740;6.784;2023-03-23T09:20:02;10.55;;;3.40;;
59300;SDS011;45073;52.740;6.784;2023-03-23T09:22:35;9.43;;;3.22;;
59300;SDS011;45073;52.740;6.784;2023-03-23T09:25:01;14.13;;;3.60;;
59300;SDS011;45073;52.740;6.784;2023-03-23T09:27:28;10.18;;;4.03;;
59300;SDS011;45073;52.740;6.784;2023-03-23T09:29:54;13.25;;;4.95;;
59300;SDS011;45073;52.740;6.784;2023-03-23T09:32:20;11.13;;;3.05;;
59300;SDS011;45073;52.740;6.784;2023-03-23T09:34:47;12.45;;;3.42;;
59300;SDS011;45073;52.740;6.784;2023-03-23T09:37:13;12.82;;;3.28;;
59300;SDS011;45073;52.740;6.784;2023-03-23T09:39:39;11.18;;;2.97;;
59300;SDS011;45073;52.740;6.784;2023-03-23T09:42:18;10.63;;;3.22;;
59300;SDS011;45073;52.740;6.784;2023-03-23T09:48:00;12.15;;;2.72;;
59300;SDS011;45073;52.740;6.784;2023-03-23T09:50:45;9.15;;;2.42;;
59300;SDS011;45073;52.740;6.784;2023-03-23T09:53:20;8.15;;;2.47;;
59300;SDS011;45073;52.740;6.784;2023-03-23T09:55:48;9.02;;;2.45;;
59300;SDS011;45073;52.740;6.784;2023-03-23T09:58:21;14.02;;;4.10;;
59300;SDS011;45073;52.740;6.784;2023-03-23T10:03:28;10.73;;;2.38;;
59300;SDS011;45073;52.740;6.784;2023-03-23T10:05:58;10.75;;;2.10;;
59300;SDS011;45073;52.740;6.784;2023-03-23T10:08:27;9.60;;;2.28;;
59300;SDS011;45073;52.740;6.784;2023-03-23T10:11:04;8.82;;;1.85;;
59300;SDS011;45073;52.740;6.784;2023-03-23T10:16:24;9.40;;;2.17;;
59300;SDS011;45073;52.740;6.784;2023-03-23T10:18:58;9.73;;;3.05;;
59300;SDS011;45073;52.740;6.784;2023-03-23T10:21:29;10.50;;;2.85;;
59300;SDS011;45073;52.740;6.784;2023-03-23T10:23:59;11.40;;;3.25;;
59300;SDS011;45073;52.740;6.784;2023-03-23T10:29:55;7.72;;;2.58;;
59300;SDS011;45073;52.740;6.784;2023-03-23T10:32:34;7.75;;;1.80;;
59300;SDS011;45073;52.740;6.784;2023-03-23T10:35:05;9.98;;;1.88;;
59300;SDS011;45073;52.740;6.784;2023-03-23T10:37:39;7.93;;;2.10;;
59300;SDS011;45073;52.740;6.784;2023-03-23T10:40:17;12.50;;;3.22;;
59300;SDS011;45073;52.740;6.784;2023-03-23T10:42:48;8.20;;;2.20;;
59300;SDS011;45073;52.740;6.784;2023-03-23T10:50:22;8.32;;;2.40;;
59300;SDS011;45073;52.740;6.784;2023-03-23T10:52:51;7.63;;;1.85;;
59300;SDS011;45073;52.740;6.784;2023-03-23T10:55:22;8.05;;;2.13;;
59300;SDS011;45073;52.740;6.784;2023-03-23T10:57:59;7.93;;;1.90;;
59300;SDS011;45073;52.740;6.784;2023-03-23T11:00:27;11.77;;;2.95;;
59300;SDS011;45073;52.740;6.784;2023-03-23T11:06:01;7.85;;;2.00;;
59300;SDS011;45073;52.740;6.784;2023-03-23T11:08:31;8.05;;;2.05;;
59300;SDS011;45073;52.740;6.784;2023-03-23T11:13:43;7.07;;;1.77;;
59300;SDS011;45073;52.740;6.784;2023-03-23T11:16:21;7.97;;;1.98;;
59300;SDS011;45073;52.740;6.784;2023-03-23T11:18:50;11.70;;;3.55;;
59300;SDS011;45073;52.740;6.784;2023-03-23T11:21:17;13.38;;;3.35;;
59300;SDS011;45073;52.740;6.784;2023-03-23T11:23:49;11.38;;;3.50;;
59300;SDS011;45073;52.740;6.784;2023-03-23T11:26:32;9.57;;;2.13;;
59300;SDS011;45073;52.740;6.784;2023-03-23T11:29:16;9.50;;;3.00;;
59300;SDS011;45073;52.740;6.784;2023-03-23T11:31:48;13.55;;;3.15;;
59300;SDS011;45073;52.740;6.784;2023-03-23T11:36:48;12.15;;;2.38;;
59300;SDS011;45073;52.740;6.784;2023-03-23T11:39:19;6.68;;;1.55;;
59300;SDS011;45073;52.740;6.784;2023-03-23T11:41:46;10.18;;;3.10;;
59300;SDS011;45073;52.740;6.784;2023-03-23T11:44:13;9.73;;;2.00;;
59300;SDS011;45073;52.740;6.784;2023-03-23T11:46:46;11.55;;;3.05;;
59300;SDS011;45073;52.740;6.784;2023-03-23T11:49:57;9.57;;;2.40;;
59300;SDS011;45073;52.740;6.784;2023-03-23T11:55:10;9.40;;;2.03;;
59300;SDS011;45073;52.740;6.784;2023-03-23T11:57:42;13.00;;;3.50;;
59300;SDS011;45073;52.740;6.784;2023-03-23T12:00:26;9.75;;;2.47;;
59300;SDS011;45073;52.740;6.784;2023-03-23T12:06:05;14.35;;;3.47;;
59300;SDS011;45073;52.740;6.784;2023-03-23T12:14:02;10.43;;;2.40;;
59300;SDS011;45073;52.740;6.784;2023-03-23T12:36:25;10.77;;;3.20;;
59300;SDS011;45073;52.740;6.784;2023-03-23T12:42:38;10.57;;;3.40;;
59300;SDS011;45073;52.740;6.784;2023-03-23T12:50:19;9.50;;;1.83;;
59300;SDS011;45073;52.740;6.784;2023-03-23T12:58:11;11.75;;;3.22;;
59300;SDS011;45073;52.740;6.784;2023-03-23T13:03:30;12.23;;;3.28;;
59300;SDS011;45073;52.740;6.784;2023-03-23T13:08:54;12.95;;;2.53;;
59300;SDS011;45073;52.740;6.784;2023-03-23T13:11:32;11.10;;;3.00;;
59300;SDS011;45073;52.740;6.784;2023-03-23T13:22:25;12.82;;;3.30;;
59300;SDS011;45073;52.740;6.784;2023-03-23T13:24:57;12.00;;;2.60;;
59300;SDS011;45073;52.740;6.784;2023-03-23T13:27:26;11.05;;;2.78;;
59300;SDS011;45073;52.740;6.784;2023-03-23T13:29:56;11.65;;;3.13;;
59300;SDS011;45073;52.740;6.784;2023-03-23T13:32:31;10.65;;;2.17;;
59300;SDS011;45073;52.740;6.784;2023-03-23T13:35:05;13.93;;;3.03;;
59300;SDS011;45073;52.740;6.784;2023-03-23T13:37:41;11.65;;;3.08;;
59300;SDS011;45073;52.740;6.784;2023-03-23T13:40:25;11.25;;;2.03;;
59300;SDS011;45073;52.740;6.784;2023-03-23T13:42:55;7.40;;;1.67;;
59300;SDS011;45073;52.740;6.784;2023-03-23T13:45:24;7.35;;;2.20;;
59300;SDS011;45073;52.740;6.784;2023-03-23T13:51:21;12.48;;;3.45;;
59300;SDS011;45073;52.740;6.784;2023-03-23T13:53:30;11.73;;;1.40;;
59300;SDS011;45073;52.740;6.784;2023-03-23T13:56:21;12.93;;;2.92;;
59300;SDS011;45073;52.740;6.784;2023-03-23T13:59:06;9.68;;;2.28;;
59300;SDS011;45073;52.740;6.784;2023-03-23T14:01:56;10.70;;;2.75;;
59300;SDS011;45073;52.740;6.784;2023-03-23T14:04:42;10.05;;;2.42;;
59300;SDS011;45073;52.740;6.784;2023-03-23T14:07:11;11.10;;;3.25;;
59300;SDS011;45073;52.740;6.784;2023-03-23T14:09:41;12.98;;;3.25;;
59300;SDS011;45073;52.740;6.784;2023-03-23T14:14:51;11.85;;;2.80;;
59300;SDS011;45073;52.740;6.784;2023-03-23T14:17:33;10.02;;;2.60;;
59300;SDS011;45073;52.740;6.784;2023-03-23T14:20:06;10.80;;;2.90;;
59300;SDS011;45073;52.740;6.784;2023-03-23T14:22:36;9.70;;;2.72;;
59300;SDS011;45073;52.740;6.784;2023-03-23T14:25:11;10.38;;;2.75;;
59300;SDS011;45073;52.740;6.784;2023-03-23T14:27:41;10.18;;;2.70;;
59300;SDS011;45073;52.740;6.784;2023-03-23T14:30:09;10.52;;;2.92;;
59300;SDS011;45073;52.740;6.784;2023-03-23T14:32:40;10.85;;;2.70;;
59300;SDS011;45073;52.740;6.784;2023-03-23T14:35:21;10.80;;;3.08;;
59300;SDS011;45073;52.740;6.784;2023-03-23T14:37:51;10.65;;;2.90;;
59300;SDS011;45073;52.740;6.784;2023-03-23T14:40:18;11.15;;;2.70;;
59300;SDS011;45073;52.740;6.784;2023-03-23T14:42:44;11.88;;;2.88;;
59300;SDS011;45073;52.740;6.784;2023-03-23T14:45:12;10.02;;;2.60;;
59300;SDS011;45073;52.740;6.784;2023-03-23T14:47:44;10.13;;;1.90;;
59300;SDS011;45073;52.740;6.784;2023-03-23T14:52:50;9.35;;;2.20;;
59300;SDS011;45073;52.740;6.784;2023-03-23T14:55:22;7.95;;;2.13;;
59300;SDS011;45073;52.740;6.784;2023-03-23T14:57:48;11.35;;;2.40;;
59300;SDS011;45073;52.740;6.784;2023-03-23T15:02:45;11.18;;;1.88;;
59300;SDS011;45073;52.740;6.784;2023-03-23T15:05:15;8.07;;;1.60;;
59300;SDS011;45073;52.740;6.784;2023-03-23T15:07:49;9.85;;;2.75;;
59300;SDS011;45073;52.740;6.784;2023-03-23T15:10:20;6.80;;;1.45;;
59300;SDS011;45073;52.740;6.784;2023-03-23T15:12:48;9.88;;;2.28;;
59300;SDS011;45073;52.740;6.784;2023-03-23T15:15:28;7.95;;;1.83;;
59300;SDS011;45073;52.740;6.784;2023-03-23T15:17:58;8.50;;;2.25;;
59300;SDS011;45073;52.740;6.784;2023-03-23T15:25:39;12.02;;;3.17;;
59300;SDS011;45073;52.740;6.784;2023-03-23T15:28:20;8.32;;;1.90;;
59300;SDS011;45073;52.740;6.784;2023-03-23T15:30:55;10.90;;;3.42;;
59300;SDS011;45073;52.740;6.784;2023-03-23T15:33:24;10.48;;;2.28;;
59300;SDS011;45073;52.740;6.784;2023-03-23T15:35:54;9.75;;;2.03;;
59300;SDS011;45073;52.740;6.784;2023-03-23T15:38:25;12.07;;;3.22;;
59300;SDS011;45073;52.740;6.784;2023-03-23T15:40:59;10.63;;;3.22;;
59300;SDS011;45073;52.740;6.784;2023-03-23T15:43:28;14.57;;;2.78;;
59300;SDS011;45073;52.740;6.784;2023-03-23T15:48:48;11.48;;;3.13;;
59300;SDS011;45073;52.740;6.784;2023-03-23T15:51:20;10.88;;;2.08;;
59300;SDS011;45073;52.740;6.784;2023-03-23T15:53:49;10.43;;;2.40;;
59300;SDS011;45073;52.740;6.784;2023-03-23T15:56:16;11.57;;;3.78;;
59300;SDS011;45073;52.740;6.784;2023-03-23T15:58:43;11.68;;;2.97;;
59300;SDS011;45073;52.740;6.784;2023-03-23T16:01:13;11.63;;;2.78;;
59300;SDS011;45073;52.740;6.784;2023-03-23T16:03:45;9.88;;;1.88;;
59300;SDS011;45073;52.740;6.784;2023-03-23T16:06:17;13.77;;;3.45;;
59300;SDS011;45073;52.740;6.784;2023-03-23T16:08:45;7.80;;;1.52;;
59300;SDS011;45073;52.740;6.784;2023-03-23T16:11:11;8.60;;;1.92;;
59300;SDS011;45073;52.740;6.784;2023-03-23T16:13:38;7.95;;;1.75;;
59300;SDS011;45073;52.740;6.784;2023-03-23T16:16:05;9.82;;;1.63;;
59300;SDS011;45073;52.740;6.784;2023-03-23T16:18:34;9.63;;;2.38;;
59300;SDS011;45073;52.740;6.784;2023-03-23T16:21:00;7.70;;;1.90;;
59300;SDS011;45073;52.740;6.784;2023-03-23T16:23:27;5.28;;;1.10;;
59300;SDS011;45073;52.740;6.784;2023-03-23T16:25:53;6.00;;;1.20;;
59300;SDS011;45073;52.740;6.784;2023-03-23T16:28:19;5.65;;;1.35;;
59300;SDS011;45073;52.740;6.784;2023-03-23T16:30:45;4.32;;;1.13;;
59300;SDS011;45073;52.740;6.784;2023-03-23T16:33:11;4.57;;;1.30;;
59300;SDS011;45073;52.740;6.784;2023-03-23T16:35:37;5.93;;;1.48;;
59300;SDS011;45073;52.740;6.784;2023-03-23T16:38:03;6.10;;;1.20;;
59300;SDS011;45073;52.740;6.784;2023-03-23T16:40:29;3.30;;;1.10;;
59300;SDS011;45073;52.740;6.784;2023-03-23T16:42:57;6.97;;;1.35;;
59300;SDS011;45073;52.740;6.784;2023-03-23T16:45:23;9.32;;;1.38;;
59300;SDS011;45073;52.740;6.784;2023-03-23T16:47:50;5.72;;;1.27;;
59300;SDS011;45073;52.740;6.784;2023-03-23T16:50:16;10.80;;;2.22;;
59300;SDS011;45073;52.740;6.784;2023-03-23T16:52:43;7.75;;;1.38;;
59300;SDS011;45073;52.740;6.784;2023-03-23T16:55:12;7.20;;;1.80;;
59300;SDS011;45073;52.740;6.784;2023-03-23T16:57:39;7.95;;;1.63;;
59300;SDS011;45073;52.740;6.784;2023-03-23T17:00:06;6.53;;;2.00;;
59300;SDS011;45073;52.740;6.784;2023-03-23T17:02:35;9.25;;;2.45;;
59300;SDS011;45073;52.740;6.784;2023-03-23T17:05:02;7.95;;;2.35;;